Time;durP1;ratioP1;P1;durP2;ratioP2;P2;SDS_P1;SDS_P2;PMS_P1;PMS_P2;Temp;Humidity;BMP_temperature;BMP_pressure;BME280_temperature;BME280_humidity;BME280_pressure;Samples;Min_cycle;Max_cycle;Signal;HPM_P1;HPM_P2
2022/10/02 00:01:51;;;;;;;1.63;1.13;;;;;;;12.30;100.00;96576.03;5039157;28;20205;-69
2022/10/02 00:04:24;;;;;;;2.23;1.00;;;;;;;12.24;100.00;96598.72;5038446;28;20205;-69
2022/10/02 00:06:57;;;;;;;2.63;1.57;;;;;;;12.25;100.00;96615.38;5038626;28;20200;-69
2022/10/02 00:09:30;;;;;;;2.50;1.30;;;;;;;12.32;100.00;96617.13;5039343;28;20212;-69
2022/10/02 00:11:59;;;;;;;1.17;1.03;;;;;;;12.23;100.00;96606.78;5039155;28;20197;-69
2022/10/02 00:14:30;;;;;;;3.53;1.33;;;;;;;12.23;100.00;96607.63;5037773;28;20696;-69
2022/10/02 00:17:00;;;;;;;2.60;1.23;;;;;;;12.22;100.00;96602.53;5039006;28;20225;-69
2022/10/02 00:19:27;;;;;;;1.53;0.87;;;;;;;12.17;100.00;96596.97;5038591;28;20197;-69
2022/10/02 00:22:11;;;;;;;4.33;1.30;;;;;;;12.24;100.00;96593.44;5038769;28;21707;-69
2022/10/02 00:24:41;;;;;;;3.67;1.13;;;;;;;12.19;100.00;96603.72;5037779;28;20205;-69
2022/10/02 00:27:17;;;;;;;4.13;1.40;;;;;;;12.17;100.00;96610.97;5039003;28;20296;-69
2022/10/02 00:29:49;;;;;;;3.67;1.20;;;;;;;12.17;100.00;96605.69;5038626;28;20500;-69
2022/10/02 00:32:24;;;;;;;3.27;1.13;;;;;;;12.17;100.00;96610.16;5038048;28;20200;-69
2022/10/02 00:35:35;;;;;;;2.40;1.20;;;;;;;12.24;100.00;96606.66;5039138;28;20200;-70
2022/10/02 00:38:15;;;;;;;5.17;1.33;;;;;;;12.20;100.00;96607.16;5038177;28;20205;-70
2022/10/02 00:40:57;;;;;;;5.57;1.50;;;;;;;12.16;100.00;96594.50;5037048;28;20221;-70
2022/10/02 00:43:29;;;;;;;2.10;1.10;;;;;;;12.13;100.00;96595.66;5037876;28;20220;-70
2022/10/02 00:46:14;;;;;;;11.37;1.60;;;;;;;12.22;100.00;96603.34;5038427;28;20197;-70
2022/10/02 00:48:48;;;;;;;3.63;1.70;;;;;;;12.18;100.00;96588.00;5037916;28;20205;-70
2022/10/02 00:51:34;;;;;;;2.13;1.30;;;;;;;12.15;100.00;96588.38;5039232;28;20225;-70
2022/10/02 00:54:12;;;;;;;8.07;1.77;;;;;;;12.13;100.00;96595.66;5036708;28;20212;-68
2022/10/02 00:56:45;;;;;;;2.57;1.40;;;;;;;12.08;100.00;96586.63;5037891;28;20779;-68
2022/10/02 00:59:36;;;;;;;4.47;1.90;;;;;;;12.02;100.00;96593.44;5038646;28;20205;-68
2022/10/02 01:02:11;;;;;;;2.33;1.23;;;;;;;12.01;100.00;96606.81;5038053;28;20232;-68
2022/10/02 01:04:39;;;;;;;3.97;1.30;;;;;;;12.17;100.00;96623.38;5037473;28;20216;-68
2022/10/02 01:07:08;;;;;;;3.10;1.43;;;;;;;12.21;100.00;96622.81;5038107;28;20208;-68
2022/10/02 01:09:37;;;;;;;4.77;1.50;;;;;;;12.22;100.00;96610.47;5037796;28;20227;-68
2022/10/02 01:12:04;;;;;;;2.87;1.40;;;;;;;12.08;100.00;96602.47;5037151;28;20205;-68
2022/10/02 01:14:34;;;;;;;3.30;1.17;;;;;;;12.18;100.00;96607.34;5037216;28;20581;-68
2022/10/02 01:17:02;;;;;;;4.30;1.00;;;;;;;12.09;100.00;96606.75;5037979;28;20251;-68
2022/10/02 01:19:33;;;;;;;3.73;1.20;;;;;;;12.16;100.00;96601.41;5037745;28;20202;-68
2022/10/02 01:22:08;;;;;;;3.10;1.10;;;;;;;12.16;100.00;96599.78;5038149;28;20861;-68
2022/10/02 01:24:43;;;;;;;2.00;1.00;;;;;;;12.21;100.00;96591.13;5037326;28;20205;-68
2022/10/02 01:27:10;;;;;;;3.20;1.40;;;;;;;12.21;100.00;96604.34;5037568;28;20208;-68
2022/10/02 01:29:36;;;;;;;6.03;1.10;;;;;;;12.13;100.00;96592.19;5037169;28;20713;-68
2022/10/02 01:32:03;;;;;;;2.23;1.10;;;;;;;12.09;100.00;96596.19;5037503;28;20205;-68
2022/10/02 01:34:30;;;;;;;1.87;1.27;;;;;;;12.20;100.00;96600.03;5036799;28;20205;-68
2022/10/02 01:36:57;;;;;;;4.43;1.60;;;;;;;12.12;100.00;96590.53;5037009;28;20224;-68
2022/10/02 01:39:25;;;;;;;5.90;1.60;;;;;;;12.01;100.00;96588.34;5037526;28;20205;-68
2022/10/02 01:41:54;;;;;;;7.20;1.60;;;;;;;11.99;100.00;96590.31;5037514;28;20336;-68
2022/10/02 01:44:21;;;;;;;5.23;1.90;;;;;;;12.07;100.00;96599.00;5036605;28;20209;-68
2022/10/02 01:46:58;;;;;;;3.03;1.20;;;;;;;12.17;100.00;96591.66;5037530;28;20197;-68
2022/10/02 01:49:40;;;;;;;2.27;1.50;;;;;;;12.08;100.00;96581.34;5036776;28;20209;-68
2022/10/02 01:52:25;;;;;;;2.77;1.30;;;;;;;12.01;100.00;96597.06;5037128;28;20204;-68
2022/10/02 01:55:07;;;;;;;6.30;1.60;;;;;;;12.04;100.00;96599.38;5037367;28;20208;-68
2022/10/02 01:57:45;;;;;;;2.43;1.40;;;;;;;11.99;100.00;96598.25;5036694;28;20239;-68
2022/10/02 02:00:16;;;;;;;6.05;1.27;;;;;;;12.02;100.00;96597.91;5036936;28;20221;-68
2022/10/02 02:02:53;;;;;;;1.97;1.30;;;;;;;12.16;100.00;96590.84;5036854;28;20224;-67
2022/10/02 02:05:27;;;;;;;2.33;1.10;;;;;;;12.27;100.00;96590.41;5034617;28;20204;-68
2022/10/02 02:08:05;;;;;;;1.80;1.20;;;;;;;12.28;100.00;96589.44;5036635;28;20873;-68
2022/10/02 02:10:41;;;;;;;4.33;1.30;;;;;;;12.29;100.00;96591.03;5037489;28;20584;-68
2022/10/02 02:13:15;;;;;;;3.33;1.30;;;;;;;12.31;100.00;96591.69;5036195;28;20208;-68
2022/10/02 02:15:49;;;;;;;1.70;1.17;;;;;;;12.34;100.00;96595.81;5036487;28;20676;-68
2022/10/02 02:18:25;;;;;;;2.93;1.13;;;;;;;12.35;100.00;96589.53;5037285;28;20197;-68
2022/10/02 02:20:56;;;;;;;1.50;0.90;;;;;;;12.47;100.00;96588.88;5037094;28;20221;-68
2022/10/02 02:23:26;;;;;;;3.03;1.23;;;;;;;12.38;100.00;96584.69;5036228;28;20208;-68
2022/10/02 02:25:59;;;;;;;0.40;0.40;;;;;;;12.41;100.00;96587.00;5036704;28;20204;-68
2022/10/02 02:28:29;;;;;;;4.33;1.03;;;;;;;12.40;100.00;96597.75;5036566;28;20228;-68
2022/10/02 02:30:58;;;;;;;1.50;0.90;;;;;;;12.41;100.00;96600.19;5036293;28;20224;-68
2022/10/02 02:33:31;;;;;;;2.60;1.10;;;;;;;12.56;100.00;96587.81;5036153;28;20201;-68
2022/10/02 02:36:03;;;;;;;3.93;0.90;;;;;;;12.56;100.00;96592.28;5036602;28;20208;-68
2022/10/02 02:38:33;;;;;;;2.53;0.90;;;;;;;12.58;100.00;96583.19;5036400;28;20201;-68
2022/10/02 02:41:04;;;;;;;3.43;1.07;;;;;;;12.59;100.00;96598.03;5036506;28;20217;-68
2022/10/02 02:43:39;;;;;;;5.73;1.33;;;;;;;12.65;100.00;96592.00;5035918;28;20208;-68
2022/10/02 02:46:09;;;;;;;4.07;1.43;;;;;;;12.54;100.00;96599.59;5036255;28;20205;-68
2022/10/02 02:48:42;;;;;;;2.80;0.75;;;;;;;12.60;100.00;96610.28;5036512;28;20201;-68
2022/10/02 02:51:13;;;;;;;4.33;1.10;;;;;;;12.64;100.00;96600.97;5036308;28;20225;-68
2022/10/02 02:53:44;;;;;;;1.87;0.80;;;;;;;12.69;100.00;96613.63;5035601;28;20216;-68
2022/10/02 02:56:15;;;;;;;1.17;0.80;;;;;;;12.70;100.00;96613.44;5036245;28;20689;-68
2022/10/02 02:58:48;;;;;;;3.00;0.80;;;;;;;12.62;100.00;96618.81;5036237;28;20211;-70
2022/10/02 03:01:15;;;;;;;3.00;1.10;;;;;;;12.54;100.00;96618.09;5036166;28;21021;-70
2022/10/02 03:03:41;;;;;;;3.30;1.13;;;;;;;12.57;100.00;96607.97;5035692;28;20669;-68
2022/10/02 03:06:26;;;;;;;6.10;1.57;;;;;;;12.72;100.00;96619.38;5036359;28;20202;-68
2022/10/02 03:08:54;;;;;;;3.87;1.20;;;;;;;12.71;100.00;96614.28;5035705;28;20205;-68
2022/10/02 03:11:35;;;;;;;4.73;1.53;;;;;;;12.78;100.00;96613.38;5035988;28;20225;-68
2022/10/02 03:14:17;;;;;;;2.90;1.07;;;;;;;12.78;100.00;96613.38;5036075;28;20193;-68
2022/10/02 03:16:50;;;;;;;1.83;1.20;;;;;;;12.74;100.00;96612.13;5036120;28;20250;-71
2022/10/02 03:19:34;;;;;;;5.03;1.00;;;;;;;12.82;100.00;96602.25;5040000;28;20204;-70
2022/10/02 03:22:07;;;;;;;5.13;1.70;;;;;;;12.77;100.00;96601.16;5040248;28;20201;-70
2022/10/02 03:24:40;;;;;;;1.40;0.90;;;;;;;12.77;100.00;96611.75;5039486;28;20197;-70
2022/10/02 03:27:10;;;;;;;4.50;1.00;;;;;;;12.76;100.00;96607.44;5039413;28;20205;-70
2022/10/02 03:29:44;;;;;;;3.40;1.20;;;;;;;12.79;100.00;96610.56;5040059;28;20221;-70
2022/10/02 03:32:13;;;;;;;3.57;1.10;;;;;;;12.80;100.00;96608.72;5039539;28;20201;-68
2022/10/02 03:34:40;;;;;;;4.78;1.30;;;;;;;12.76;100.00;96606.63;5039568;28;20653;-68
2022/10/02 03:37:07;;;;;;;2.45;1.20;;;;;;;12.72;100.00;96603.53;5039931;28;20221;-68
2022/10/02 03:39:34;;;;;;;7.37;1.17;;;;;;;12.76;100.00;96612.72;5039428;28;20197;-68
2022/10/02 03:42:01;;;;;;;1.80;1.20;;;;;;;12.79;100.00;96609.72;5039657;28;20204;-68
2022/10/02 03:44:27;;;;;;;4.28;1.10;;;;;;;12.70;100.00;96612.63;5039087;28;20556;-68
2022/10/02 03:46:55;;;;;;;1.35;1.08;;;;;;;12.81;100.00;96611.19;5039265;28;20208;-68
2022/10/02 03:49:22;;;;;;;6.80;1.55;;;;;;;12.76;100.00;96609.28;5039107;28;20214;-68
2022/10/02 03:51:48;;;;;;;3.47;1.10;;;;;;;12.79;100.00;96607.06;5039575;28;20208;-68
2022/10/02 03:54:17;;;;;;;2.87;0.97;;;;;;;12.92;100.00;96607.31;5038739;28;20205;-68
2022/10/02 03:56:52;;;;;;;1.60;0.90;;;;;;;12.89;100.00;96599.72;5038561;28;20275;-68
2022/10/02 03:59:34;;;;;;;5.40;1.40;;;;;;;13.03;100.00;96604.19;5039213;28;20200;-68
2022/10/02 04:02:09;;;;;;;1.93;1.10;;;;;;;12.86;100.00;96600.91;5039088;28;20244;-68
2022/10/02 04:04:44;;;;;;;4.27;1.07;;;;;;;12.92;100.00;96600.19;5038531;28;20311;-68
2022/10/02 04:07:16;;;;;;;4.07;1.20;;;;;;;12.86;100.00;96600.09;5039134;28;20202;-68
2022/10/02 04:09:50;;;;;;;5.25;1.27;;;;;;;12.94;100.00;96597.38;5039584;28;20220;-68
2022/10/02 04:12:21;;;;;;;3.47;1.10;;;;;;;12.87;100.00;96596.47;5038612;28;20205;-68
2022/10/02 04:14:52;;;;;;;4.27;1.40;;;;;;;12.90;100.00;96610.13;5039358;28;20193;-68
2022/10/02 04:17:24;;;;;;;3.13;1.40;;;;;;;12.91;100.00;96611.78;5038676;28;20220;-70
2022/10/02 04:19:55;;;;;;;4.37;1.20;;;;;;;12.88;100.00;96604.22;5038567;28;20221;-70
2022/10/02 04:22:31;;;;;;;6.47;2.13;;;;;;;12.94;100.00;96602.66;5038294;28;20205;-70
2022/10/02 04:25:02;;;;;;;2.37;1.17;;;;;;;12.96;100.00;96605.94;5039149;28;20196;-70
2022/10/02 04:27:35;;;;;;;1.53;1.00;;;;;;;12.93;100.00;96612.44;5038207;28;20197;-70
2022/10/02 04:30:05;;;;;;;3.70;1.10;;;;;;;12.89;100.00;96607.66;5037768;28;20221;-70
2022/10/02 04:32:35;;;;;;;1.83;1.10;;;;;;;12.91;100.00;96608.31;5038561;28;20905;-70
2022/10/02 04:35:05;;;;;;;1.70;0.90;;;;;;;12.84;100.00;96612.63;5038847;28;20197;-70
2022/10/02 04:37:42;;;;;;;3.77;1.50;;;;;;;12.92;100.00;96620.53;5038512;28;20247;-70
2022/10/02 04:40:24;;;;;;;3.43;1.33;;;;;;;12.98;100.00;96623.28;5038152;28;20228;-70
2022/10/02 04:43:07;;;;;;;2.43;1.30;;;;;;;12.98;100.00;96628.56;5037978;28;20208;-70
2022/10/02 04:45:50;;;;;;;2.70;0.90;;;;;;;13.00;100.00;96623.09;5038198;28;20561;-70
2022/10/02 04:48:45;;;;;;;3.80;1.53;;;;;;;13.01;100.00;96624.75;5038283;28;20216;-70
2022/10/02 04:51:25;;;;;;;6.20;1.73;;;;;;;12.90;100.00;96627.81;5038249;28;20221;-68
2022/10/02 04:54:13;;;;;;;2.67;1.03;;;;;;;13.02;100.00;96636.94;5037903;28;20204;-68
2022/10/02 04:56:57;;;;;;;4.50;1.00;;;;;;;13.02;100.00;96642.25;5037828;28;20956;-68
2022/10/02 04:59:35;;;;;;;2.13;1.40;;;;;;;12.97;100.00;96645.44;5037885;28;20633;-68
2022/10/02 05:02:20;;;;;;;3.83;1.50;;;;;;;13.04;100.00;96641.06;5038383;28;20201;-68
2022/10/02 05:05:05;;;;;;;7.00;1.60;;;;;;;13.05;100.00;96631.31;5038075;28;20209;-68
2022/10/02 05:07:45;;;;;;;2.20;1.10;;;;;;;12.96;100.00;96633.22;5037895;28;20579;-68
2022/10/02 05:10:29;;;;;;;1.80;1.10;;;;;;;13.01;100.00;96633.50;5037949;28;20603;-68
2022/10/02 05:13:08;;;;;;;2.57;1.00;;;;;;;13.04;100.00;96635.75;5037095;28;20299;-68
2022/10/02 05:16:02;;;;;;;3.53;1.13;;;;;;;12.99;100.00;96637.31;5037131;28;20208;-68
2022/10/02 05:18:45;;;;;;;2.13;1.23;;;;;;;13.01;100.00;96630.84;5036227;28;20598;-68
2022/10/02 05:21:29;;;;;;;5.23;1.33;;;;;;;13.04;100.00;96629.66;5037104;28;20727;-68
2022/10/02 05:24:14;;;;;;;5.23;1.80;;;;;;;13.01;100.00;96630.03;5037428;28;20559;-68
2022/10/02 05:27:00;;;;;;;4.00;1.80;;;;;;;13.03;100.00;96636.75;5037662;28;20197;-68
2022/10/02 05:30:04;;;;;;;2.87;1.50;;;;;;;13.15;100.00;96643.25;5037155;28;20220;-68
2022/10/02 05:32:54;;;;;;;6.90;1.77;;;;;;;13.18;100.00;96636.78;5030443;28;20197;-68
2022/10/02 05:35:34;;;;;;;6.43;2.10;;;;;;;13.16;100.00;96636.13;5034818;28;20700;-68
2022/10/02 05:38:15;;;;;;;1.80;1.40;;;;;;;13.14;100.00;96619.63;5036942;28;20229;-68
2022/10/02 05:40:48;;;;;;;6.05;1.52;;;;;;;13.13;100.00;96624.06;5036447;28;20246;-68
2022/10/02 05:43:24;;;;;;;4.38;2.30;;;;;;;13.14;100.00;96624.91;5036876;28;20288;-67
2022/10/02 05:45:55;;;;;;;6.87;5.33;;;;;;;13.12;100.00;96621.63;5036794;28;20204;-67
2022/10/02 05:48:26;;;;;;;4.87;2.20;;;;;;;13.22;100.00;96617.69;5037270;28;20212;-67
2022/10/02 05:50:58;;;;;;;5.13;2.05;;;;;;;13.24;100.00;96614.84;5036997;28;20740;-70
2022/10/02 05:53:34;;;;;;;3.67;2.20;;;;;;;13.20;100.00;96603.84;5036697;28;20880;-70
2022/10/02 05:56:09;;;;;;;9.00;2.77;;;;;;;13.13;100.00;96613.50;5036862;28;20193;-70
2022/10/02 05:58:40;;;;;;;9.43;2.80;;;;;;;13.07;100.00;96603.66;5036897;28;20223;-70
2022/10/02 06:01:12;;;;;;;6.13;3.20;;;;;;;13.11;100.00;96610.22;5037189;28;20232;-72
2022/10/02 06:03:43;;;;;;;10.00;3.00;;;;;;;13.18;100.00;96615.59;5035979;28;20201;-70
2022/10/02 06:06:14;;;;;;;3.38;2.60;;;;;;;13.16;100.00;96605.22;5036671;28;20201;-68
2022/10/02 06:08:47;;;;;;;5.75;2.70;;;;;;;13.10;100.00;96605.13;5037172;28;20197;-68
2022/10/02 06:11:18;;;;;;;5.88;2.72;;;;;;;13.04;100.00;96611.94;5035869;28;20290;-68
2022/10/02 06:13:49;;;;;;;4.13;2.55;;;;;;;13.05;100.00;96610.16;5038033;28;20208;-68
2022/10/02 06:16:22;;;;;;;6.03;3.28;;;;;;;13.12;100.00;96611.88;5038550;28;20201;-68
2022/10/02 06:18:59;;;;;;;6.50;3.20;;;;;;;13.03;100.00;96612.13;5037759;28;20221;-68
2022/10/02 06:21:34;;;;;;;10.43;4.30;;;;;;;13.14;100.00;96616.97;5038656;28;20688;-70
2022/10/02 06:24:05;;;;;;;8.10;4.30;;;;;;;13.15;100.00;96610.66;5035079;28;20196;-71
2022/10/02 06:26:40;;;;;;;4.68;2.90;;;;;;;13.19;100.00;96606.66;5037056;28;20197;-70
2022/10/02 06:29:14;;;;;;;6.20;2.88;;;;;;;13.10;100.00;96613.06;5036551;28;20201;-71
2022/10/02 06:31:46;;;;;;;12.35;4.10;;;;;;;13.17;100.00;96614.75;5035413;28;21182;-71
2022/10/02 06:34:14;;;;;;;10.98;4.53;;;;;;;13.10;100.00;96613.06;5035914;28;20197;-72
2022/10/02 06:37:13;;;;;;;9.48;4.18;;;;;;;13.21;100.00;96615.22;5036384;28;20216;-70
2022/10/02 06:39:55;;;;;;;10.38;4.28;;;;;;;13.12;100.00;96613.69;5036840;28;20232;-70
2022/10/02 06:42:35;;;;;;;11.38;3.90;;;;;;;13.15;100.00;96616.78;5035576;28;20201;-69
2022/10/02 06:45:12;;;;;;;15.30;6.00;;;;;;;13.12;100.00;96618.97;5036142;28;20695;-70
2022/10/02 06:47:58;;;;;;;12.32;5.50;;;;;;;13.20;100.00;96629.47;5037183;28;20559;-70
2022/10/02 06:50:43;;;;;;;11.80;4.50;;;;;;;13.32;100.00;96628.00;5036062;28;20220;-69
2022/10/02 06:53:39;;;;;;;18.55;5.68;;;;;;;13.32;100.00;96631.47;5038140;28;20558;-70
2022/10/02 06:56:21;;;;;;;6.57;3.10;;;;;;;13.28;100.00;96632.03;5035127;28;20208;-70
2022/10/02 06:58:59;;;;;;;8.75;3.55;;;;;;;13.27;100.00;96619.78;5040114;28;20213;-70
2022/10/02 07:01:37;;;;;;;8.30;3.55;;;;;;;13.26;100.00;96618.97;5040716;28;20232;-70
2022/10/02 07:04:41;;;;;;;13.32;5.70;;;;;;;13.39;100.00;96621.81;5039823;28;20212;-70
2022/10/02 07:07:21;;;;;;;8.20;3.40;;;;;;;13.35;100.00;96617.84;5039046;28;20237;-70
2022/10/02 07:10:11;;;;;;;9.80;4.63;;;;;;;13.43;100.00;96609.84;5040322;28;20768;-70
2022/10/02 07:12:54;;;;;;;11.32;4.78;;;;;;;13.47;100.00;96606.59;5039746;28;20572;-69
2022/10/02 07:15:34;;;;;;;14.20;6.63;;;;;;;13.49;100.00;96609.91;5039944;28;20197;-70
2022/10/02 07:18:11;;;;;;;12.38;6.20;;;;;;;13.48;100.00;96602.16;5040177;28;20320;-70
2022/10/02 07:20:50;;;;;;;16.08;6.20;;;;;;;13.54;100.00;96590.81;5039964;28;20228;-70
2022/10/02 07:23:34;;;;;;;16.38;6.53;;;;;;;13.56;100.00;96594.91;5039427;28;20197;-70
2022/10/02 07:26:26;;;;;;;8.10;5.15;;;;;;;13.60;100.00;96590.88;5040398;28;20204;-70
2022/10/02 07:29:03;;;;;;;11.15;3.92;;;;;;;13.64;100.00;96575.44;5037862;28;20210;-70
2022/10/02 07:31:41;;;;;;;9.10;3.03;;;;;;;13.72;100.00;96578.81;5036952;28;20315;-68
2022/10/02 07:34:21;;;;;;;10.68;3.38;;;;;;;13.81;100.00;96560.94;5038064;28;20205;-68
2022/10/02 07:36:58;;;;;;;4.95;3.13;;;;;;;13.82;100.00;96557.28;5038463;28;20212;-68
2022/10/02 07:39:39;;;;;;;7.20;4.00;;;;;;;13.88;100.00;96572.44;5038474;28;20234;-68
2022/10/02 07:42:23;;;;;;;9.77;4.50;;;;;;;13.95;100.00;96568.00;5038525;28;20205;-68
2022/10/02 07:45:10;;;;;;;6.53;3.53;;;;;;;13.99;100.00;96559.50;5038314;28;20201;-68
2022/10/02 07:47:54;;;;;;;12.00;3.25;;;;;;;14.02;100.00;96559.13;5038434;28;20201;-68
2022/10/02 07:50:31;;;;;;;7.25;2.70;;;;;;;14.04;100.00;96557.91;5038634;28;20223;-68
2022/10/02 07:53:08;;;;;;;6.50;3.33;;;;;;;14.18;100.00;96564.19;5037404;28;20197;-69
2022/10/02 07:55:40;;;;;;;12.40;3.80;;;;;;;14.15;100.00;96556.59;5038502;28;20205;-70
2022/10/02 07:58:12;;;;;;;11.02;3.60;;;;;;;14.17;100.00;96562.56;5038820;28;20312;-70
2022/10/02 08:00:45;;;;;;;9.05;3.08;;;;;;;14.27;100.00;96552.44;5038063;28;20220;-68
2022/10/02 08:03:16;;;;;;;7.47;2.78;;;;;;;14.32;100.00;96552.66;5036251;28;20201;-68
2022/10/02 08:05:46;;;;;;;8.32;2.83;;;;;;;14.35;100.00;96545.16;5038547;28;20212;-68
2022/10/02 08:08:19;;;;;;;10.15;2.97;;;;;;;14.50;100.00;96548.53;5038121;28;20264;-68
2022/10/02 08:10:51;;;;;;;7.35;3.50;;;;;;;14.52;100.00;96551.81;5037928;28;20228;-68
2022/10/02 08:13:20;;;;;;;6.95;3.33;;;;;;;14.47;100.00;96540.16;5037537;28;20201;-69
2022/10/02 08:15:53;;;;;;;4.95;2.83;;;;;;;14.62;100.00;96540.88;5038129;28;20208;-69
2022/10/02 08:18:27;;;;;;;6.13;2.60;;;;;;;14.69;100.00;96538.06;5037371;28;20873;-68
2022/10/02 08:20:54;;;;;;;5.82;3.22;;;;;;;14.73;100.00;96528.69;5037458;28;20227;-68
2022/10/02 08:23:27;;;;;;;9.35;4.72;;;;;;;15.02;100.00;96523.16;5037484;28;20205;-71
2022/10/02 08:26:01;;;;;;;11.57;5.53;;;;;;;15.16;100.00;96511.56;5037629;28;20210;-71
2022/10/02 08:28:35;;;;;;;8.45;3.67;;;;;;;15.18;100.00;96524.63;5038084;28;20197;-68
2022/10/02 08:31:09;;;;;;;7.88;3.40;;;;;;;15.40;100.00;96521.66;5039433;28;20220;-72
2022/10/02 08:33:35;;;;;;;6.28;2.67;;;;;;;15.49;100.00;96517.81;5040925;28;20737;-71
2022/10/02 08:36:21;;;;;;;4.28;2.50;;;;;;;15.66;100.00;96527.09;5041533;28;20203;-71
2022/10/02 08:38:50;;;;;;;3.92;2.38;;;;;;;15.48;100.00;96508.25;5037596;28;20229;-70
2022/10/02 08:41:57;;;;;;;7.03;2.83;;;;;;;15.82;100.00;96511.56;5037082;28;20256;-70
2022/10/02 08:45:06;;;;;;;2.95;1.80;;;;;;;15.96;100.00;96508.72;5036137;28;20762;-70
2022/10/02 08:48:00;;;;;;;5.50;1.40;;;;;;;16.12;100.00;96503.00;4989169;28;20292;-71
2022/10/02 08:50:51;;;;;;;3.17;1.63;;;;;;;16.29;100.00;96501.59;5039625;28;20221;-71
2022/10/02 08:53:56;;;;;;;2.42;1.27;;;;;;;16.41;100.00;96496.47;5038067;28;20201;-71
2022/10/02 08:56:49;;;;;;;4.68;1.52;;;;;;;16.38;100.00;96505.69;5038167;28;21021;-71
2022/10/02 09:00:07;;;;;;;3.92;1.30;;;;;;;16.42;100.00;96498.94;5039633;28;20290;-71
2022/10/02 09:03:14;;;;;;;4.03;1.33;;;;;;;16.45;100.00;96495.06;5035714;28;20274;-72
2022/10/02 09:06:17;;;;;;;4.50;1.27;;;;;;;16.48;100.00;96482.13;5039058;28;20201;-71
2022/10/02 09:09:17;;;;;;;3.60;1.40;;;;;;;16.56;100.00;96484.59;5040207;28;20203;-70
2022/10/02 09:12:20;;;;;;;5.03;1.30;;;;;;;16.62;100.00;96473.94;5038397;28;20670;-71
2022/10/02 09:14:51;;;;;;;2.75;0.98;;;;;;;16.51;100.00;96481.75;5037058;28;20799;-71
2022/10/02 09:17:44;;;;;;;1.08;0.77;;;;;;;16.68;100.00;96467.75;5036627;28;20212;-71
2022/10/02 09:20:43;;;;;;;3.40;1.25;;;;;;;16.89;100.00;96474.66;5036723;28;20228;-71
2022/10/02 09:23:42;;;;;;;1.40;1.08;;;;;;;16.90;100.00;96461.13;5035206;28;20201;-71
2022/10/02 09:26:33;;;;;;;1.83;0.90;;;;;;;17.05;100.00;96463.56;5037105;28;20943;-71
2022/10/02 09:29:28;;;;;;;3.42;1.23;;;;;;;17.10;100.00;96457.38;5037046;28;20201;-71
2022/10/02 09:32:33;;;;;;;6.53;0.88;;;;;;;17.19;100.00;96450.78;5037061;28;20228;-71
2022/10/02 09:35:35;;;;;;;3.92;0.80;;;;;;;17.50;100.00;96458.84;5037038;28;20205;-71
2022/10/02 09:38:35;;;;;;;1.73;0.93;;;;;;;17.71;100.00;96450.50;5036525;28;20197;-71
2022/10/02 09:41:52;;;;;;;6.85;0.88;;;;;;;17.97;100.00;96455.66;5021021;28;20225;-71
2022/10/02 09:44:55;;;;;;;1.73;0.85;;;;;;;18.21;100.00;96446.88;5035997;28;20206;-70
2022/10/02 09:47:48;;;;;;;1.55;0.82;;;;;;;18.52;100.00;96439.56;5036526;28;20637;-70
2022/10/02 09:50:48;;;;;;;3.15;0.77;;;;;;;18.60;99.94;96442.78;5036522;28;20216;-70
2022/10/02 09:53:58;;;;;;;4.10;0.80;;;;;;;18.58;97.88;96444.88;5036434;28;20287;-71
2022/10/02 09:56:57;;;;;;;2.13;0.80;;;;;;;18.45;98.27;96439.63;5036480;28;20197;-71
2022/10/02 10:00:02;;;;;;;1.40;0.93;;;;;;;18.52;99.37;96427.06;5036368;28;20300;-72
2022/10/02 10:02:53;;;;;;;2.00;1.02;;;;;;;18.57;99.60;96429.06;5000873;28;20216;-71
2022/10/02 10:05:40;;;;;;;1.60;0.80;;;;;;;18.78;100.00;96417.97;5036250;28;20213;-71
2022/10/02 10:08:41;;;;;;;1.08;0.75;;;;;;;18.90;98.71;96419.63;5036973;28;20207;-71
2022/10/02 10:11:50;;;;;;;2.53;0.70;;;;;;;18.99;97.69;96405.78;5036569;28;20227;-71
2022/10/02 10:14:50;;;;;;;2.20;0.90;;;;;;;19.03;97.47;96395.47;5028279;28;20201;-71
2022/10/02 10:18:00;;;;;;;1.00;0.70;;;;;;;19.10;96.57;96406.91;5036513;28;20201;-71
2022/10/02 10:20:54;;;;;;;4.00;0.80;;;;;;;19.03;96.64;96396.25;5035988;28;20231;-72
2022/10/02 10:23:53;;;;;;;0.50;0.40;;;;;;;18.79;95.32;96401.72;5036855;28;20193;-72
2022/10/02 10:26:55;;;;;;;2.75;0.80;;;;;;;18.62;96.56;96400.69;5035321;28;20211;-72
2022/10/02 10:29:49;;;;;;;2.08;0.63;;;;;;;18.75;96.24;96397.03;5036051;28;20208;-71
2022/10/02 10:32:42;;;;;;;0.55;0.50;;;;;;;18.84;95.71;96403.69;5036805;28;20988;-70
2022/10/02 10:35:23;;;;;;;2.83;0.80;;;;;;;18.89;95.78;96395.81;5022880;28;20201;-71
2022/10/02 10:38:31;;;;;;;0.95;0.80;;;;;;;18.97;95.49;96391.00;5040225;28;20196;-71
2022/10/02 10:41:39;;;;;;;1.70;0.77;;;;;;;18.89;96.58;96396.66;5021670;28;20591;-71
2022/10/02 10:44:24;;;;;;;3.53;0.93;;;;;;;18.63;97.89;96388.13;5004621;28;20355;-71
2022/10/02 10:47:23;;;;;;;0.40;0.38;;;;;;;18.74;97.15;96396.22;5037127;28;20198;-70
2022/10/02 10:50:34;;;;;;;1.58;0.98;;;;;;;18.78;96.84;96396.59;5037514;28;20229;-71
2022/10/02 10:53:29;;;;;;;2.38;0.70;;;;;;;18.71;96.62;96399.34;5039191;28;20278;-70
2022/10/02 10:56:18;;;;;;;2.53;0.73;;;;;;;18.81;95.81;96407.63;5037412;28;20201;-70
2022/10/02 10:59:03;;;;;;;2.05;1.35;;;;;;;18.92;96.88;96408.75;5035929;28;20308;-71
2022/10/02 11:01:42;;;;;;;2.67;1.02;;;;;;;19.19;95.06;96400.19;5035872;28;20603;-71
2022/10/02 11:04:35;;;;;;;1.50;1.10;;;;;;;19.44;94.35;96390.19;5035952;28;20584;-72
2022/10/02 11:07:15;;;;;;;2.35;1.20;;;;;;;19.53;94.25;96386.97;5038337;28;20201;-70
2022/10/02 11:09:55;;;;;;;2.25;1.00;;;;;;;19.65;94.29;96388.63;5038572;28;20217;-72
2022/10/02 11:13:01;;;;;;;1.80;0.95;;;;;;;19.49;93.36;96390.31;5038810;28;20216;-71
2022/10/02 11:16:12;;;;;;;1.75;1.08;;;;;;;19.55;93.92;96392.06;5040148;28;20358;-72
2022/10/02 11:19:10;;;;;;;1.20;0.77;;;;;;;19.62;92.06;96389.06;5017087;28;20209;-71
2022/10/02 11:22:06;;;;;;;1.55;0.60;;;;;;;19.68;91.44;96382.81;5015268;28;20241;-71
2022/10/02 11:25:20;;;;;;;1.55;0.50;;;;;;;19.55;92.04;96387.53;5035515;28;20202;-71
2022/10/02 11:28:13;;;;;;;2.28;0.75;;;;;;;19.54;92.47;96395.78;5030366;28;20207;-71
2022/10/02 11:30:52;;;;;;;0.73;0.60;;;;;;;19.42;93.41;96384.25;5035783;28;20275;-71
2022/10/02 11:33:52;;;;;;;1.83;0.70;;;;;;;19.51;93.15;96389.03;5035543;28;20209;-71
2022/10/02 11:36:46;;;;;;;0.57;0.57;;;;;;;19.46;91.03;96404.94;5037514;28;20209;-71
2022/10/02 11:39:34;;;;;;;1.08;0.80;;;;;;;19.44;92.40;96400.88;5041551;28;20728;-71
2022/10/02 11:42:47;;;;;;;2.00;0.52;;;;;;;19.52;92.96;96385.31;5040846;28;20201;-71
2022/10/02 11:45:33;;;;;;;1.60;1.05;;;;;;;19.53;92.29;96386.16;5020079;28;20675;-71
2022/10/02 11:48:22;;;;;;;1.48;0.60;;;;;;;19.41;92.37;96394.13;5039365;28;20565;-70
2022/10/02 11:51:23;;;;;;;2.58;0.85;;;;;;;19.57;92.02;96394.28;5037858;28;20286;-71
2022/10/02 11:54:14;;;;;;;0.90;0.60;;;;;;;19.57;92.16;96387.31;5038694;28;20208;-71
2022/10/02 11:57:06;;;;;;;0.43;0.43;;;;;;;19.50;90.92;96387.44;5039932;28;20327;-70
2022/10/02 12:00:13;;;;;;;1.80;0.70;;;;;;;19.63;91.40;96388.03;5038343;28;20221;-71
2022/10/02 12:02:47;;;;;;;1.27;0.60;;;;;;;19.50;93.18;96381.25;5016929;28;21012;-71
2022/10/02 12:05:41;;;;;;;1.55;0.60;;;;;;;19.51;92.76;96389.03;5040142;28;20193;-71
2022/10/02 12:08:17;;;;;;;0.75;0.57;;;;;;;19.49;91.25;96387.63;5038409;28;20294;-72
2022/10/02 12:10:52;;;;;;;1.73;0.80;;;;;;;19.63;91.74;96388.03;5039143;28;20238;-71
2022/10/02 12:13:48;;;;;;;3.05;0.98;;;;;;;19.72;90.74;96386.66;5038644;28;20673;-71
2022/10/02 12:16:28;;;;;;;5.30;0.90;;;;;;;19.74;90.27;96384.59;5029704;28;20661;-71
2022/10/02 12:19:06;;;;;;;0.50;0.50;;;;;;;19.82;91.49;96380.75;5037449;28;20211;-72
2022/10/02 12:27:41;;;;;;;2.78;1.73;;;;;;;20.04;90.76;96358.59;5037486;28;20228;-71
2022/10/02 12:30:12;;;;;;;2.58;1.00;;;;;;;20.02;92.55;96355.34;5037922;28;20219;-71
2022/10/02 12:33:14;;;;;;;2.03;0.95;;;;;;;20.21;92.59;96355.00;5037626;28;20212;-71
2022/10/02 12:36:23;;;;;;;1.05;0.60;;;;;;;20.03;93.62;96362.31;5038782;28;20204;-71
2022/10/02 12:39:03;;;;;;;1.83;0.70;;;;;;;19.69;95.90;96365.72;5030351;28;20448;-71